Terminal Aerodrome Forecast
Issued by NWS

Home | Current Version | Previous Version | Text Only | Print | Product List | Glossary On
Versions: 1 2 3 4 5 6 7 8 9 10 11 12
742
FTUS45 KVEF 240533
TAFVGT
TAF
KVGT 240533Z 2406/2506 28008KT P6SM SKC
     FM241700 02006KT P6SM SCT250
     FM242100 13006KT P6SM SCT250
     FM250400 30006KT P6SM SCT250=

USA.gov is the U.S. government's official web portal to all federal, state and local government web resources and services.